Time;durP1;ratioP1;P1;durP2;ratioP2;P2;SDS_P1;SDS_P2;PMS_P1;PMS_P2;Temp;Humidity;BMP_temperature;BMP_pressure;BME280_temperature;BME280_humidity;BME280_pressure;Samples;Min_cycle;Max_cycle;Signal;HPM_P1;HPM_P2
2023/10/24 00:01:06;;;;;;;25.23;14.07;;;;;;;;;;5044819;28;20468;-67
2023/10/24 00:03:32;;;;;;;21.25;12.65;;;;;;;;;;5037564;28;20052;-67
2023/10/24 00:05:58;;;;;;;25.10;12.55;;;;;;;;;;5035544;28;20497;-67
2023/10/24 00:08:24;;;;;;;21.58;13.68;;;;;;;;;;5031963;28;20101;-67
2023/10/24 00:10:59;;;;;;;23.08;13.57;;;;;;;;;;5057510;28;20420;-67
2023/10/24 00:13:25;;;;;;;21.25;13.55;;;;;;;;;;5038055;28;20040;-67
2023/10/24 00:15:51;;;;;;;22.65;13.52;;;;;;;;;;5038258;28;20056;-67
2023/10/24 00:18:16;;;;;;;19.55;13.40;;;10.80;99.90;;;;;;5038960;28;20451;-67
2023/10/24 00:20:42;;;;;;;23.67;14.38;;;;;;;;;;5056081;28;20111;-67
2023/10/24 00:23:08;;;;;;;24.77;13.43;;;;;;;;;;5024616;28;20428;-67
2023/10/24 00:25:35;;;;;;;25.13;13.45;;;;;;;;;;5039709;28;20420;-67
2023/10/24 00:28:00;;;;;;;22.35;13.70;;;10.70;99.90;;;;;;5030862;28;20080;-67
2023/10/24 00:30:26;;;;;;;24.15;14.02;;;10.70;99.90;;;;;;5048110;28;20117;-67
2023/10/24 00:32:52;;;;;;;25.25;13.82;;;;;;;;;;5016306;28;20036;-67
2023/10/24 00:35:18;;;;;;;23.63;13.60;;;;;;;;;;5034916;28;20125;-67
2023/10/24 00:37:44;;;;;;;22.33;14.15;;;;;;;;;;5017343;28;20439;-67
2023/10/24 00:40:10;;;;;;;24.52;13.93;;;;;;;;;;5031501;28;20055;-66
2023/10/24 00:42:36;;;;;;;22.75;12.93;;;10.60;99.90;;;;;;5046409;28;20048;-67
2023/10/24 00:45:02;;;;;;;27.30;13.68;;;10.70;99.90;;;;;;5038478;28;20610;-67
2023/10/24 00:50:50;;;;;;;21.90;13.52;;;;;;;;;;5051732;28;20106;-67
2023/10/24 00:53:17;;;;;;;22.55;14.10;;;;;;;;;;5061688;28;20048;-67
2023/10/24 00:59:06;;;;;;;25.33;13.07;;;;;;;;;;5054974;28;20121;-67
2023/10/24 01:01:32;;;;;;;23.40;13.43;;;;;;;;;;5060615;28;20040;-67
2023/10/24 01:03:59;;;;;;;23.65;14.40;;;;;;;;;;5039342;28;20468;-67
2023/10/24 01:06:26;;;;;;;21.38;12.93;;;;;;;;;;5057349;28;20521;-67
2023/10/24 01:08:52;;;;;;;26.65;15.00;;;10.50;99.90;;;;;;5038454;28;20056;-67
2023/10/24 01:11:18;;;;;;;20.40;13.88;;;10.70;99.90;;;;;;5059327;28;20710;-66
2023/10/24 01:13:44;;;;;;;22.98;12.57;;;;;;;;;;5034512;28;20444;-67
2023/10/24 01:16:10;;;;;;;23.95;13.10;;;;;;;;;;5063324;28;20058;-67
2023/10/24 01:18:36;;;;;;;21.48;12.90;;;;;;;;;;5039315;28;20588;-67
2023/10/24 01:21:02;;;;;;;20.85;11.80;;;10.80;99.90;;;;;;5033858;28;20128;-67
2023/10/24 01:23:30;;;;;;;19.73;13.35;;;;;;;;;;5015744;28;20048;-67
2023/10/24 01:25:58;;;;;;;20.63;10.63;;;10.90;99.90;;;;;;5043217;28;20041;-67
2023/10/24 01:28:24;;;;;;;21.55;12.25;;;;;;;;;;5040951;28;20060;-67
2023/10/24 01:30:50;;;;;;;21.48;11.80;;;;;;;;;;5041035;28;20052;-67
2023/10/24 01:33:16;;;;;;;16.65;10.70;;;;;;;;;;5045645;28;20049;-67
2023/10/24 01:35:42;;;;;;;18.35;11.75;;;;;;;;;;5039323;28;20120;-67
2023/10/24 01:38:08;;;;;;;16.10;10.77;;;10.70;99.90;;;;;;5057142;28;20040;-67
2023/10/24 01:40:34;;;;;;;18.40;10.60;;;;;;;;;;5052830;28;20172;-67
2023/10/24 01:43:00;;;;;;;19.35;10.55;;;;;;;;;;5041425;28;20048;-67
2023/10/24 01:45:26;;;;;;;15.75;10.55;;;;;;;;;;5047052;28;20060;-67
2023/10/24 01:47:52;;;;;;;16.30;9.88;;;;;;;;;;5051745;28;20044;-67
2023/10/24 01:50:18;;;;;;;13.75;8.88;;;;;;;;;;5032324;28;20045;-67
2023/10/24 01:52:43;;;;;;;14.45;8.85;;;10.80;99.90;;;;;;5061740;28;20036;-67
2023/10/24 01:55:09;;;;;;;16.83;10.18;;;;;;;;;;5045019;28;20701;-67
2023/10/24 01:57:35;;;;;;;14.05;9.15;;;;;;;;;;5043912;28;20415;-67
2023/10/24 02:00:03;;;;;;;14.45;9.15;;;;;;;;;;5059988;28;20629;-67
2023/10/24 02:02:29;;;;;;;15.63;9.85;;;10.70;99.90;;;;;;5041845;28;20543;-67
2023/10/24 02:04:55;;;;;;;14.88;9.48;;;;;;;;;;5064490;28;20043;-67
2023/10/24 02:07:21;;;;;;;12.77;8.73;;;;;;;;;;5049215;28;20056;-67
2023/10/24 02:09:47;;;;;;;15.55;8.63;;;;;;;;;;5047786;28;20040;-67
2023/10/24 02:15:39;;;;;;;14.38;8.70;;;;;;;;;;5060714;28;20113;-67
2023/10/24 02:18:05;;;;;;;13.85;8.23;;;;;;;;;;5038224;28;20440;-67
2023/10/24 02:20:31;;;;;;;15.60;9.45;;;;;;;;;;5064702;28;20055;-67
2023/10/24 02:22:57;;;;;;;16.10;10.23;;;;;;;;;;5043343;28;20041;-67
2023/10/24 02:25:23;;;;;;;13.52;8.82;;;;;;;;;;5065562;28;20043;-67
2023/10/24 02:27:49;;;;;;;15.00;9.63;;;;;;;;;;5059726;28;20491;-67
2023/10/24 02:30:15;;;;;;;17.08;11.18;;;;;;;;;;5050105;28;20052;-67
2023/10/24 02:32:41;;;;;;;16.23;9.57;;;;;;;;;;5061482;28;20055;-67
2023/10/24 02:35:07;;;;;;;16.23;9.60;;;;;;;;;;5042661;28;20488;-67
2023/10/24 02:37:33;;;;;;;18.98;10.52;;;;;;;;;;5035710;28;20051;-67
2023/10/24 02:39:59;;;;;;;19.58;11.68;;;11.10;99.90;;;;;;5049904;28;20044;-67
2023/10/24 02:42:24;;;;;;;17.42;10.80;;;11.20;99.90;;;;;;5043784;28;20526;-67
2023/10/24 02:44:50;;;;;;;20.27;11.32;;;;;;;;;;5066098;28;20127;-67
2023/10/24 02:47:16;;;;;;;17.42;11.15;;;;;;;;;;5043695;28;20172;-67
2023/10/24 02:55:13;;;;;;;17.60;11.70;;;;;;;;;;5082881;28;20524;-67
2023/10/24 02:57:39;;;;;;;18.23;10.73;;;;;;;;;;5085248;28;20064;-67
2023/10/24 03:00:05;;;;;;;17.48;11.13;;;11.50;99.90;;;;;;5084307;28;20044;-67
2023/10/24 03:02:31;;;;;;;18.00;10.70;;;;;;;;;;5078840;28;20036;-67
2023/10/24 03:04:57;;;;;;;18.92;11.02;;;;;;;;;;5084041;28;20459;-67
2023/10/24 03:07:24;;;;;;;20.73;11.48;;;;;;;;;;5084980;28;20040;-67
2023/10/24 03:09:50;;;;;;;21.63;13.45;;;;;;;;;;5082721;28;20411;-67
2023/10/24 03:12:16;;;;;;;22.17;12.27;;;;;;;;;;5087287;28;20503;-67
2023/10/24 03:14:45;;;;;;;19.65;12.23;;;;;;;;;;5080258;28;20051;-67
2023/10/24 03:17:11;;;;;;;21.90;12.63;;;;;;;;;;5081628;28;20058;-67
2023/10/24 03:19:37;;;;;;;22.17;13.68;;;;;;;;;;5079927;28;20052;-67
2023/10/24 03:22:03;;;;;;;18.52;11.77;;;;;;;;;;5077003;28;20093;-67
2023/10/24 03:24:29;;;;;;;22.00;12.45;;;;;;;;;;5080416;28;20048;-67
2023/10/24 03:26:55;;;;;;;23.50;13.52;;;11.60;99.90;;;;;;5087399;28;20040;-67
2023/10/24 03:29:21;;;;;;;22.60;13.50;;;;;;;;;;5086236;28;20048;-67
2023/10/24 03:31:47;;;;;;;22.00;12.90;;;;;;;;;;5087401;28;20044;-67
2023/10/24 03:34:13;;;;;;;23.92;14.20;;;;;;;;;;5086024;28;20093;-67
2023/10/24 03:36:39;;;;;;;23.00;13.80;;;;;;;;;;5086116;28;20051;-67
2023/10/24 03:39:05;;;;;;;24.52;13.25;;;;;;;;;;5085607;28;20417;-67
2023/10/24 03:41:31;;;;;;;23.08;13.32;;;;;;;;;;5085375;28;20135;-67
2023/10/24 03:43:57;;;;;;;30.05;15.13;;;;;;;;;;5085539;28;20552;-67
2023/10/24 03:46:29;;;;;;;22.55;13.38;;;;;;;;;;5087505;28;20051;-67
2023/10/24 03:48:57;;;;;;;22.85;14.10;;;;;;;;;;5078325;28;20669;-67
2023/10/24 03:51:23;;;;;;;22.92;13.75;;;;;;;;;;5086328;28;20406;-67
2023/10/24 03:53:49;;;;;;;22.05;14.02;;;;;;;;;;5084606;28;20055;-67
2023/10/24 03:56:15;;;;;;;21.65;13.98;;;;;;;;;;5083550;28;20730;-67
2023/10/24 03:58:41;;;;;;;21.17;13.30;;;;;;;;;;5082328;28;20054;-67
2023/10/24 04:01:07;;;;;;;21.70;14.10;;;;;;;;;;5082849;28;20051;-67
2023/10/24 04:03:34;;;;;;;25.70;14.57;;;;;;;;;;5084110;28;20048;-67
2023/10/24 04:06:00;;;;;;;29.70;16.60;;;;;;;;;;5084820;28;20040;-67
2023/10/24 04:08:26;;;;;;;18.52;12.98;;;;;;;;;;5072286;28;20078;-67
2023/10/24 04:10:52;;;;;;;25.67;15.73;;;;;;;;;;5075040;28;20414;-67
2023/10/24 04:13:18;;;;;;;28.02;16.58;;;11.50;99.90;;;;;;5083204;28;20078;-67
2023/10/24 04:15:44;;;;;;;27.40;17.25;;;;;;;;;;5084014;28;20047;-67
2023/10/24 04:18:10;;;;;;;34.30;17.40;;;;;;;;;;5081102;28;20592;-67
2023/10/24 04:20:40;;;;;;;26.83;16.85;;;11.80;99.90;;;;;;5080028;28;21741;-67
2023/10/24 04:23:14;;;;;;;23.90;14.80;;;;;;;;;;5082019;28;20036;-67
2023/10/24 04:25:40;;;;;;;28.77;18.17;;;;;;;;;;5081929;28;20054;-67
2023/10/24 04:28:06;;;;;;;29.45;18.77;;;;;;;;;;5084564;28;20490;-67
2023/10/24 04:30:32;;;;;;;26.75;16.85;;;;;;;;;;5080753;28;20335;-67
2023/10/24 04:32:58;;;;;;;25.90;18.08;;;;;;;;;;5075389;28;20059;-67
2023/10/24 04:35:24;;;;;;;28.10;17.88;;;11.80;99.90;;;;;;5086220;28;20521;-67
2023/10/24 04:37:50;;;;;;;24.88;19.17;;;11.80;99.90;;;;;;5086997;28;20396;-67
2023/10/24 04:40:16;;;;;;;34.53;19.27;;;;;;;;;;5085307;28;20059;-67
2023/10/24 04:42:42;;;;;;;25.10;17.90;;;;;;;;;;5082574;28;20046;-67
2023/10/24 04:45:08;;;;;;;30.23;18.50;;;;;;;;;;5083893;28;20054;-67
2023/10/24 04:47:34;;;;;;;24.70;17.45;;;11.80;99.90;;;;;;5083393;28;20047;-67
2023/10/24 04:50:00;;;;;;;27.60;18.95;;;;;;;;;;5078185;28;20125;-67
2023/10/24 04:52:35;;;;;;;30.15;18.33;;;;;;;;;;5083410;28;20120;-67
2023/10/24 04:55:01;;;;;;;26.98;18.50;;;;;;;;;;5079062;28;20079;-67
2023/10/24 04:57:27;;;;;;;25.35;17.05;;;;;;;;;;5078316;28;20097;-67
2023/10/24 04:59:53;;;;;;;25.92;18.05;;;;;;;;;;5078229;28;20051;-67
2023/10/24 05:02:19;;;;;;;23.77;16.25;;;;;;;;;;5077259;28;20046;-67
2023/10/24 05:04:45;;;;;;;24.75;16.55;;;;;;;;;;5075721;28;20151;-67
2023/10/24 05:07:11;;;;;;;23.05;16.45;;;;;;;;;;5084498;28;20048;-67
2023/10/24 05:09:37;;;;;;;22.90;16.55;;;;;;;;;;5080936;28;20074;-67
2023/10/24 05:12:04;;;;;;;24.63;15.98;;;;;;;;;;5081717;28;20502;-67
2023/10/24 05:14:30;;;;;;;23.83;15.20;;;;;;;;;;5080282;28;20048;-67
2023/10/24 05:16:56;;;;;;;24.45;15.85;;;;;;;;;;5070762;28;20041;-66
2023/10/24 05:19:22;;;;;;;23.02;14.55;;;;;;;;;;5075905;28;20044;-67
2023/10/24 05:21:48;;;;;;;21.08;14.38;;;;;;;;;;5081498;28;20456;-67
2023/10/24 05:24:14;;;;;;;19.48;13.60;;;;;;;;;;5082120;28;20047;-67
2023/10/24 05:26:40;;;;;;;17.80;13.70;;;;;;;;;;5081236;28;20048;-67
2023/10/24 05:29:06;;;;;;;20.30;12.80;;;11.80;99.90;;;;;;5084164;28;20048;-67
2023/10/24 05:31:32;;;;;;;19.45;12.07;;;;;;;;;;5084188;28;20054;-67
2023/10/24 05:33:58;;;;;;;20.02;12.80;;;;;;;;;;5085652;28;20082;-67
2023/10/24 05:36:24;;;;;;;15.18;12.00;;;;;;;;;;5088059;28;20036;-67
2023/10/24 05:38:50;;;;;;;16.40;12.27;;;;;;;;;;5085875;28;20039;-67
2023/10/24 05:41:16;;;;;;;20.10;11.75;;;;;;;;;;5068862;28;20048;-67
2023/10/24 05:43:42;;;;;;;16.73;11.95;;;;;;;;;;5079454;28;20032;-67
2023/10/24 05:46:08;;;;;;;16.50;11.90;;;;;;;;;;5083112;28;20101;-67
2023/10/24 05:48:37;;;;;;;16.98;11.25;;;;;;;;;;5085674;28;20521;-67
2023/10/24 05:51:03;;;;;;;15.60;11.38;;;;;;;;;;5085825;28;20047;-67
2023/10/24 05:53:29;;;;;;;18.85;11.23;;;;;;;;;;5084700;28;20047;-67
2023/10/24 05:55:55;;;;;;;21.67;10.88;;;;;;;;;;5086032;28;20457;-67
2023/10/24 05:58:23;;;;;;;13.57;10.10;;;;;;;;;;5086707;28;20059;-67
2023/10/24 06:00:49;;;;;;;16.25;10.30;;;;;;;;;;5080080;28;20123;-67
2023/10/24 06:03:15;;;;;;;15.00;10.43;;;;;;;;;;5084818;28;20055;-66
2023/10/24 06:05:41;;;;;;;15.75;10.57;;;;;;;;;;5085640;28;20458;-67
2023/10/24 06:08:07;;;;;;;13.95;10.50;;;;;;;;;;5084470;28;20105;-67
2023/10/24 06:10:33;;;;;;;14.10;10.23;;;;;;;;;;5085143;28;20052;-67
2023/10/24 06:12:59;;;;;;;15.95;10.90;;;;;;;;;;5080324;28;20079;-67
2023/10/24 06:15:25;;;;;;;15.15;10.15;;;;;;;;;;5085966;28;20066;-67
2023/10/24 06:17:51;;;;;;;15.82;9.73;;;;;;;;;;5083952;28;20044;-67
2023/10/24 06:20:17;;;;;;;12.38;9.10;;;;;;;;;;5083916;28;20169;-67
2023/10/24 06:22:42;;;;;;;16.13;10.80;;;11.60;99.90;;;;;;5087045;28;20044;-68
2023/10/24 06:25:10;;;;;;;14.80;9.77;;;;;;;;;;5077582;28;20676;-67
2023/10/24 06:27:37;;;;;;;14.10;9.73;;;;;;;;;;5074189;28;20052;-65
2023/10/24 06:30:03;;;;;;;14.50;9.63;;;;;;;;;;5080344;28;20514;-66
2023/10/24 06:32:29;;;;;;;13.70;9.70;;;;;;;;;;5077488;28;20422;-66
2023/10/24 06:34:55;;;;;;;13.73;9.18;;;;;;;;;;5057091;28;20032;-66
2023/10/24 06:37:21;;;;;;;12.50;9.23;;;;;;;;;;5076270;28;20078;-66
2023/10/24 06:39:47;;;;;;;14.10;8.30;;;;;;;;;;5074864;28;20044;-66
2023/10/24 06:42:13;;;;;;;13.38;8.68;;;;;;;;;;5057384;28;20052;-66
2023/10/24 06:44:39;;;;;;;15.98;8.18;;;;;;;;;;5073148;28;20047;-66
2023/10/24 06:47:05;;;;;;;17.15;9.52;;;;;;;;;;5080389;28;20048;-66
2023/10/24 06:49:31;;;;;;;14.60;9.02;;;;;;;;;;5076583;28;20088;-66
2023/10/24 06:51:57;;;;;;;14.38;9.07;;;;;;;;;;5104924;22;20789;-86
2023/10/24 06:54:23;;;;;;;13.25;8.63;;;;;;;;;;5063215;28;20043;-87
2023/10/24 06:56:49;;;;;;;18.38;9.18;;;;;;;;;;5056150;28;20039;-87
2023/10/24 06:59:15;;;;;;;14.70;9.60;;;;;;;;;;5079197;28;20076;-86
2023/10/24 07:01:42;;;;;;;13.57;9.45;;;;;;;;;;5070573;28;20520;-85
2023/10/24 07:04:10;;;;;;;14.65;9.40;;;;;;;;;;5072440;28;20076;-87
2023/10/24 07:06:36;;;;;;;12.95;9.20;;;;;;;;;;5074570;28;20460;-87
2023/10/24 07:09:02;;;;;;;13.68;8.95;;;;;;;;;;5054132;28;20035;-87
2023/10/24 07:11:28;;;;;;;13.25;8.35;;;;;;;;;;5075880;28;20096;-87
2023/10/24 07:13:54;;;;;;;13.85;8.73;;;;;;;;;;5072076;28;20046;-87
2023/10/24 07:16:20;;;;;;;16.88;8.77;;;;;;;;;;5065273;28;20090;-91
2023/10/24 07:18:49;;;;;;;13.63;8.82;;;;;;;;;;5063249;28;20035;-88
2023/10/24 07:21:16;;;;;;;13.45;8.52;;;;;;;;;;5058443;28;20082;-91
2023/10/24 07:23:42;;;;;;;14.45;8.38;;;;;;;;;;5059309;28;20043;-88
2023/10/24 07:26:08;;;;;;;17.17;10.07;;;;;;;;;;5067184;28;20043;-90
2023/10/24 07:28:34;;;;;;;18.98;10.68;;;;;;;;;;5055563;28;20040;-93
2023/10/24 07:31:00;;;;;;;16.70;9.77;;;;;;;;;;5060413;28;20057;-91
2023/10/24 07:33:26;;;;;;;16.60;9.27;;;;;;;;;;5041035;28;20040;-90
2023/10/24 07:35:52;;;;;;;17.58;10.23;;;;;;;;;;5060398;28;20055;-89
2023/10/24 07:38:19;;;;;;;13.18;9.02;;;;;;;;;;5071963;28;20127;-89
2023/10/24 07:40:45;;;;;;;15.80;9.77;;;;;;;;;;5052256;28;20044;-90
2023/10/24 07:43:11;;;;;;;16.48;10.77;;;;;;;;;;5058605;28;20590;-89
2023/10/24 07:45:37;;;;;;;14.32;8.55;;;;;;;;;;5071851;28;20040;-88
2023/10/24 07:48:05;;;;;;;15.57;10.15;;;;;;;;;;5070944;28;20051;-88
2023/10/24 07:50:32;;;;;;;17.70;10.27;;;;;;;;;;5062560;28;20077;-88
2023/10/24 07:52:58;;;;;;;19.83;11.73;;;;;;;;;;5053426;28;20040;-91
2023/10/24 07:55:24;;;;;;;16.98;10.20;;;;;;;;;;5081259;28;20434;-90
2023/10/24 07:57:51;;;;;;;13.93;8.93;;;;;;;;;;5061729;28;20051;-88
2023/10/24 08:00:18;;;;;;;20.88;11.30;;;;;;;;;;5066323;28;20062;-89
2023/10/24 08:02:44;;;;;;;19.52;10.68;;;;;;;;;;5057009;28;20399;-89
2023/10/24 08:05:10;;;;;;;17.98;10.85;;;;;;;;;;5077867;28;20444;-89
2023/10/24 08:07:37;;;;;;;19.20;10.23;;;;;;;;;;5067770;28;20581;-87
2023/10/24 08:10:03;;;;;;;17.30;10.93;;;;;;;;;;5062575;28;20067;-87
2023/10/24 08:12:29;;;;;;;17.67;11.18;;;;;;;;;;5063288;28;20039;-89
2023/10/24 08:14:56;;;;;;;17.10;10.98;;;;;;;;;;5053414;28;20044;-87
2023/10/24 08:17:21;;;;;;;19.08;11.68;;;;;;;;;;5070403;28;20097;-87
2023/10/24 08:19:48;;;;;;;21.42;11.38;;;;;;;;;;5066478;28;20044;-87
2023/10/24 08:22:14;;;;;;;19.77;11.25;;;;;;;;;;5055935;28;20051;-88
2023/10/24 08:24:40;;;;;;;20.05;11.45;;;;;;;;;;5060881;28;20050;-87
2023/10/24 08:27:06;;;;;;;17.27;11.10;;;;;;;;;;5078321;28;20790;-88
2023/10/24 08:29:32;;;;;;;22.35;12.55;;;;;;;;;;5066205;28;20046;-88
2023/10/24 08:31:58;;;;;;;20.15;11.88;;;;;;;;;;5068884;28;20038;-89
2023/10/24 08:34:25;;;;;;;17.63;11.10;;;;;;;;;;5062587;28;20051;-89
2023/10/24 08:36:51;;;;;;;19.77;12.18;;;;;;;;;;5077489;28;20394;-88
2023/10/24 08:39:17;;;;;;;18.80;11.15;;;;;;;;;;5063240;28;20039;-88
2023/10/24 08:41:46;;;;;;;20.35;12.85;;;;;;;;;;5059117;28;20048;-88
2023/10/24 08:44:12;;;;;;;19.17;12.30;;;;;;;;;;5054578;28;20550;-88
2023/10/24 08:46:38;;;;;;;21.25;12.13;;;;;;;;;;5072213;28;20044;-88
2023/10/24 08:49:05;;;;;;;18.60;11.73;;;;;;;;;;5068079;28;20043;-88
2023/10/24 08:51:31;;;;;;;23.35;11.95;;;;;;;;;;5072587;28;20052;-88
2023/10/24 08:53:57;;;;;;;18.27;11.15;;;;;;;;;;5059881;28;20087;-87
2023/10/24 08:56:23;;;;;;;18.83;12.40;;;;;;;;;;5056883;28;20411;-89
2023/10/24 08:58:50;;;;;;;21.77;12.25;;;;;;;;;;5048964;28;20040;-88
2023/10/24 09:01:16;;;;;;;18.15;12.00;;;;;;;;;;5050788;28;20044;-88
2023/10/24 09:03:43;;;;;;;20.52;12.27;;;;;;;;;;5069291;28;21384;-87
2023/10/24 09:06:09;;;;;;;18.90;11.48;;;;;;;;;;5056718;28;20153;-88
2023/10/24 09:08:35;;;;;;;19.75;12.43;;;;;;;;;;5064545;28;20112;-88
2023/10/24 09:11:01;;;;;;;19.13;12.25;;;;;;;;;;5068731;28;20044;-90
2023/10/24 09:13:27;;;;;;;21.75;11.88;;;;;;;;;;5058334;28;20047;-88
2023/10/24 09:16:09;;;;;;;19.40;10.52;;;;;;;;;;5075010;28;20582;-88
2023/10/24 09:18:39;;;;;;;20.90;13.18;;;;;;;;;;5076793;28;20050;-88
2023/10/24 09:21:07;;;;;;;21.33;12.88;;;;;;;;;;5052960;28;20055;-88
2023/10/24 09:23:34;;;;;;;18.75;11.95;;;;;;;;;;5051667;28;20094;-88
2023/10/24 09:26:11;;;;;;;20.55;12.43;;;;;;;;;;5063091;28;20046;-88
2023/10/24 09:28:37;;;;;;;20.35;11.63;;;;;;;;;;5070854;28;20083;-88
2023/10/24 09:31:04;;;;;;;19.48;12.57;;;;;;;;;;5067803;28;20047;-88
2023/10/24 09:33:30;;;;;;;18.45;11.55;;;;;;;;;;5087121;28;20040;-90
2023/10/24 09:35:56;;;;;;;23.02;12.98;;;;;;;;;;5092567;28;20096;-89
2023/10/24 09:38:24;;;;;;;18.77;11.70;;;;;;;;;;5090162;28;20050;-87
2023/10/24 09:40:50;;;;;;;18.15;12.02;;;;;;;;;;5069519;28;20380;-88
2023/10/24 09:43:23;;;;;;;20.00;11.77;;;;;;;;;;5060838;28;20044;-87
2023/10/24 09:45:53;;;;;;;14.68;11.02;;;;;;;;;;5082729;28;20036;-87
2023/10/24 09:48:21;;;;;;;19.73;12.45;;;;;;;;;;5064495;28;20048;-87
2023/10/24 09:50:47;;;;;;;18.33;11.70;;;;;;;;;;5065520;28;20090;-88
2023/10/24 09:53:13;;;;;;;18.08;10.93;;;;;;;;;;5077587;28;20075;-89
2023/10/24 09:55:41;;;;;;;19.95;11.30;;;;;;;;;;5065496;28;20044;-89
2023/10/24 09:58:09;;;;;;;18.23;11.30;;;;;;;;;;5075750;28;20066;-88
2023/10/24 10:00:35;;;;;;;17.67;11.18;;;;;;;;;;5071896;28;20406;-87
2023/10/24 10:03:01;;;;;;;17.85;11.80;;;;;;;;;;5054435;28;20053;-87
2023/10/24 10:05:29;;;;;;;18.80;11.32;;;;;;;;;;5059350;28;20108;-88
2023/10/24 10:07:57;;;;;;;15.70;10.55;;;;;;;;;;5060936;28;20146;-87
2023/10/24 10:10:24;;;;;;;17.58;10.82;;;;;;;;;;5073196;28;20503;-89
2023/10/24 10:12:52;;;;;;;15.65;10.10;;;;;;;;;;5052436;28;20054;-87
2023/10/24 10:15:26;;;;;;;16.67;10.52;;;;;;;;;;5078605;28;20039;-87
2023/10/24 10:17:58;;;;;;;13.57;9.55;;;;;;;;;;5077786;28;20050;-87
2023/10/24 10:20:38;;;;;;;17.45;11.82;;;;;;;;;;5072598;28;20117;-87
2023/10/24 10:23:19;;;;;;;18.73;11.90;;;;;;;;;;5059651;28;20039;-89
2023/10/24 10:25:52;;;;;;;20.35;12.30;;;;;;;;;;5079992;28;20139;-88
2023/10/24 10:28:24;;;;;;;20.83;12.35;;;;;;;;;;5074890;28;20044;-89
2023/10/24 10:31:13;;;;;;;18.67;11.23;;;;;;;;;;5075877;28;20048;-88
2023/10/24 10:33:39;;;;;;;16.92;11.30;;;;;;;;;;5069994;28;20119;-89
2023/10/24 10:36:08;;;;;;;21.42;11.98;;;;;;;;;;5084124;28;20047;-89
2023/10/24 10:38:38;;;;;;;20.45;12.68;;;;;;;;;;5072213;28;20035;-88
2023/10/24 10:41:23;;;;;;;20.17;12.00;;;;;;;;;;5059026;28;20051;-88
2023/10/24 10:43:50;;;;;;;18.27;13.05;;;;;;;;;;5071316;28;20445;-88
2023/10/24 10:46:20;;;;;;;19.67;12.00;;;;;;;;;;5077005;28;20143;-89
2023/10/24 10:48:49;;;;;;;19.45;13.13;;;;;;;;;;5073984;28;20051;-89
2023/10/24 10:51:22;;;;;;;19.98;13.02;;;;;;;;;;5061679;28;20494;-90
2023/10/24 10:53:48;;;;;;;21.98;12.25;;;;;;;;;;5056872;28;20052;-89
2023/10/24 10:56:23;;;;;;;20.55;12.48;;;;;;;;;;5062178;28;20100;-91
2023/10/24 10:59:07;;;;;;;19.17;12.98;;;;;;;;;;5077993;28;20048;-90
2023/10/24 11:01:52;;;;;;;16.35;11.40;;;;;;;;;;5056580;28;20051;-89
2023/10/24 11:04:18;;;;;;;17.75;12.38;;;;;;;;;;5076382;28;20150;-89
2023/10/24 11:06:51;;;;;;;19.30;12.27;;;;;;;;;;5078952;28;20054;-87
2023/10/24 11:09:19;;;;;;;16.77;12.43;;;;;;;;;;5054390;28;20040;-88
2023/10/24 11:11:44;;;;;;;19.35;12.18;;;;;;;;;;5066303;28;20047;-88
2023/10/24 11:14:14;;;;;;;18.55;12.82;;;;;;;;;;5070479;28;20040;-88
2023/10/24 11:16:44;;;;;;;17.08;11.40;;;;;;;;;;5066096;28;20036;-88
2023/10/24 11:19:18;;;;;;;17.00;11.60;;;;;;;;;;5052725;28;20040;-88
2023/10/24 11:21:45;;;;;;;18.27;12.02;;;;;;;;;;5072428;28;20087;-88
2023/10/24 11:24:14;;;;;;;18.45;11.75;;;;;;;;;;5050786;28;20044;-88
2023/10/24 11:26:41;;;;;;;16.52;11.23;;;;;;;;;;5080344;28;20039;-89
2023/10/24 11:29:07;;;;;;;15.02;10.65;;;;;;;;;;5055429;28;20044;-88
2023/10/24 11:31:33;;;;;;;17.50;11.20;;;;;;;;;;5057346;28;20047;-90
2023/10/24 11:33:59;;;;;;;16.45;10.70;;;;;;;;;;5073742;28;20071;-88
2023/10/24 11:36:27;;;;;;;16.65;11.45;;;;;;;;;;5075430;28;20044;-90
2023/10/24 11:38:53;;;;;;;16.52;11.50;;;;;;;;;;5053092;28;20051;-89
2023/10/24 11:41:19;;;;;;;16.63;10.52;;;;;;;;;;5053009;28;20052;-87
2023/10/24 11:43:47;;;;;;;13.95;10.05;;;;;;;;;;5062709;28;20056;-90
2023/10/24 11:46:13;;;;;;;16.75;10.68;;;;;;;;;;5061965;28;20055;-90
2023/10/24 11:48:39;;;;;;;12.70;10.00;;;;;;;;;;5076542;28;20733;-90
2023/10/24 11:51:05;;;;;;;15.65;10.60;;;;;;;;;;5075830;28;20054;-89
2023/10/24 11:53:33;;;;;;;12.68;9.63;;;;;;;;;;5061031;28;20040;-90
2023/10/24 11:56:00;;;;;;;13.70;10.00;;;;;;;;;;5069998;28;20036;-90
2023/10/24 11:58:32;;;;;;;20.08;10.40;;;;;;;;;;5067497;28;20079;-90
2023/10/24 12:00:59;;;;;;;12.93;9.38;;;;;;;;;;5064563;28;20097;-91
2023/10/24 12:03:25;;;;;;;15.40;10.10;;;;;;;;;;5052822;28;20127;-90
2023/10/24 12:05:55;;;;;;;12.77;9.15;;;12.50;99.90;;;;;;5057545;28;20044;-89
2023/10/24 12:08:25;;;;;;;11.48;9.15;;;;;;;;;;5070246;28;20817;-90
2023/10/24 12:10:55;;;;;;;12.43;9.75;;;;;;;;;;5055353;28;20071;-90
2023/10/24 12:13:22;;;;;;;12.52;8.75;;;;;;;;;;5063067;28;20051;-89
2023/10/24 12:15:48;;;;;;;13.00;9.52;;;;;;;;;;5074586;28;20489;-89
2023/10/24 12:18:15;;;;;;;13.90;8.55;;;;;;;;;;5072461;28;20106;-88
2023/10/24 12:20:41;;;;;;;12.18;10.07;;;;;;;;;;5059999;28;20798;-89
2023/10/24 12:23:10;;;;;;;14.32;8.85;;;;;;;;;;5059574;28;20123;-90
2023/10/24 12:25:36;;;;;;;10.55;8.68;;;;;;;;;;5065931;28;20055;-89
2023/10/24 12:28:02;;;;;;;10.57;8.20;;;;;;;;;;5077465;28;20450;-89
2023/10/24 12:30:28;;;;;;;9.20;7.50;;;;;;;;;;5061271;28;20040;-88
2023/10/24 12:32:54;;;;;;;12.40;7.60;;;;;;;;;;5047960;28;20044;-88
2023/10/24 12:35:20;;;;;;;14.60;7.53;;;;;;;;;;5050710;28;20045;-89
2023/10/24 12:37:46;;;;;;;12.98;8.35;;;;;;;;;;5061077;28;20049;-90
2023/10/24 12:40:12;;;;;;;11.13;7.38;;;;;;;;;;5046543;28;20197;-89
2023/10/24 12:42:38;;;;;;;11.90;7.43;;;;;;;;;;5060760;28;20459;-89
2023/10/24 12:45:04;;;;;;;9.05;7.45;;;;;;;;;;5058114;28;20069;-87
2023/10/24 12:47:30;;;;;;;11.55;7.68;;;;;;;;;;5068219;28;20123;-88
2023/10/24 12:49:56;;;;;;;9.43;7.25;;;;;;;;;;5061636;28;20139;-87
2023/10/24 12:52:22;;;;;;;10.52;6.97;;;;;;;;;;5075889;28;20794;-88
2023/10/24 12:54:49;;;;;;;11.73;7.55;;;;;;;;;;5050332;28;20040;-90
2023/10/24 12:57:15;;;;;;;8.57;6.40;;;;;;;;;;5047766;28;20063;-90
2023/10/24 12:59:41;;;;;;;10.25;7.32;;;;;;;;;;5055048;28;20040;-88
2023/10/24 13:02:08;;;;;;;10.48;6.70;;;;;;;;;;5064191;28;20766;-88
2023/10/24 13:04:35;;;;;;;8.60;7.03;;;;;;;;;;5080715;28;20128;-88
2023/10/24 13:07:04;;;;;;;8.43;6.82;;;;;;;;;;5050790;28;20571;-89
2023/10/24 13:09:32;;;;;;;8.40;6.15;;;;;;;;;;5063728;28;20139;-87
2023/10/24 13:11:59;;;;;;;10.65;7.75;;;;;;;;;;5060475;28;20043;-87
2023/10/24 13:14:25;;;;;;;9.38;7.10;;;;;;;;;;5069313;28;20091;-87
2023/10/24 13:16:51;;;;;;;9.63;7.18;;;;;;;;;;5067472;28;20143;-86
2023/10/24 13:19:16;;;;;;;9.95;7.00;;;;;;;;;;5063560;28;20040;-87
2023/10/24 13:21:42;;;;;;;11.63;7.20;;;;;;;;;;5045438;28;20358;-88
2023/10/24 13:24:09;;;;;;;9.70;6.90;;;;;;;;;;5067607;28;20114;-91
2023/10/24 13:26:38;;;;;;;11.48;7.65;;;;;;;;;;5050163;28;20043;-90
2023/10/24 13:29:07;;;;;;;9.85;6.97;;;;;;;;;;5041939;28;20052;-90
2023/10/24 13:31:33;;;;;;;12.27;6.55;;;;;;;;;;5039656;28;20075;-91
2023/10/24 13:33:59;;;;;;;7.80;5.55;;;;;;;;;;5045887;28;20119;-89
2023/10/24 13:36:28;;;;;;;8.88;6.25;;;;;;;;;;5063845;28;20247;-91
2023/10/24 13:38:54;;;;;;;10.63;6.00;;;;;;;;;;5063215;28;20059;-90
2023/10/24 13:41:20;;;;;;;9.52;5.85;;;;;;;;;;5054386;28;20040;-88
2023/10/24 13:43:46;;;;;;;10.80;6.05;;;;;;;;;;5065750;28;20125;-91
2023/10/24 13:46:12;;;;;;;6.47;5.80;;;;;;;;;;5046135;28;20059;-88
2023/10/24 13:48:38;;;;;;;9.20;5.85;;;;;;;;;;5044657;28;20044;-89
2023/10/24 13:51:04;;;;;;;8.15;5.75;;;;;;;;;;5066368;28;20090;-91
2023/10/24 13:53:30;;;;;;;10.25;5.70;;;;;;;;;;5060738;28;20049;-91
2023/10/24 13:55:59;;;;;;;8.45;5.28;;;;;;;;;;5071779;28;20123;-90
2023/10/24 13:58:25;;;;;;;7.60;5.65;;;;;;;;;;5067404;28;20571;-89
2023/10/24 14:00:54;;;;;;;8.77;5.88;;;;;;;;;;5072350;28;20479;-88
2023/10/24 14:03:20;;;;;;;13.38;5.65;;;;;;;;;;5061786;28;20626;-87
2023/10/24 14:05:46;;;;;;;7.60;5.22;;;;;;;;;;5053187;28;20131;-87
2023/10/24 14:08:15;;;;;;;8.68;5.90;;;;;;;;;;5074558;28;20079;-88
2023/10/24 14:10:41;;;;;;;7.20;5.40;;;;;;;;;;5079922;28;20044;-87
2023/10/24 14:13:07;;;;;;;6.78;4.90;;;;;;;;;;5073666;28;20050;-90
2023/10/24 14:15:33;;;;;;;8.80;6.15;;;;;;;;;;5058523;28;20548;-90
2023/10/24 14:18:03;;;;;;;6.50;5.43;;;;;;;;;;5054781;28;20056;-91
2023/10/24 14:20:30;;;;;;;6.28;4.95;;;;;;;;;;5065473;28;20087;-89
2023/10/24 14:22:57;;;;;;;9.30;5.65;;;;;;;;;;5055838;28;20048;-85
2023/10/24 14:25:31;;;;;;;9.02;5.10;;;;;;;;;;5074104;28;20468;-91
2023/10/24 14:28:15;;;;;;;5.57;4.68;;;;;;;;;;5079519;28;20043;-89